Maersk Suzhou — D5KN6 — position and weather

sailwx.info

Track history (hours):
 
Tides and Currents Weather Stations Pressure Air Temp Water Temp Dewpoint Dewpoint Depression Visibility Wind Speed Wind Dir Waves Ship Positions

Maersk Suzhou

Last reported at 2017-Dec-14 14:45 UTC. Time now 2017-Dec-15 18:07 UTC.
Position N 36°59' W 031°18'.

Length 323 m; draft 14 m.

Type: Cargo ship. MMSI: 636017358.

Date/timePositionNaut miles runAvg speedWind from/ knotsBaromVisibWave heightAir tempDewpointWater temp
2017-Dec-14 14:45N 36°59' W 031°18'8919.9
2017-Dec-14 10:17N 37°09' W 029°26'1020.1
2017-Dec-14 09:46N 37°10' W 029°13'620.0
2017-Dec-14 09:29N 37°10' W 029°06'919.9
2017-Dec-14 09:00N 37°11' W 028°55'1019.4
2017-Dec-14 08:31N 37°12' W 028°43'1019.6
2017-Dec-14 08:00N 37°13' W 028°30'1019.8
2017-Dec-14 07:30N 37°14' W 028°18'1019.7
2017-Dec-14 07:00N 37°15' W 028°06'1019.8
2017-Dec-14 06:30N 37°16' W 027°53'1019.8
2017-Dec-14 06:01N 37°18' W 027°41'1819.9
2017-Dec-14 05:06N 37°19' W 027°18'219.2
2017-Dec-14 04:59N 37°20' W 027°16'1020.1
2017-Dec-14 04:29N 37°20' W 027°03'919.7
2017-Dec-14 04:00N 37°21' W 026°51'1019.5
2017-Dec-14 03:30N 37°22' W 026°39'1019.6
2017-Dec-14 03:01N 37°23' W 026°27'1019.4
2017-Dec-14 02:31N 37°24' W 026°15'1020.0
2017-Dec-14 02:01N 37°25' W 026°02'1019.8
2017-Dec-14 01:31N 37°26' W 025°50'1019.8
2017-Dec-14 01:00N 37°27' W 025°37'1019.9
2017-Dec-14 00:31N 37°28' W 025°25'1020.0
2017-Dec-14 00:00N 37°29' W 025°12'1020.0
2017-Dec-13 23:30N 37°29' W 024°60'1019.7
2017-Dec-13 23:00N 37°28' W 024°47'1019.6
2017-Dec-13 22:30N 37°28' W 024°35'1020.4
2017-Dec-13 22:00N 37°27' W 024°22'1020.3
2017-Dec-13 21:30N 37°26' W 024°09'1020.0
2017-Dec-13 21:00N 37°24' W 023°57'1019.8
2017-Dec-13 20:30N 37°23' W 023°45'1019.8
2017-Dec-13 20:00N 37°22' W 023°32'1219.7
2017-Dec-13 19:23N 37°21' W 023°17'1419.9
2017-Dec-13 18:41N 37°19' W 022°59'1519.9
2017-Dec-13 17:56N 37°18' W 022°41'1019.9
2017-Dec-13 17:27N 37°17' W 022°29'919.5
2017-Dec-13 17:00N 37°16' W 022°18'2019.8
2017-Dec-13 15:59N 37°14' W 021°52'75518.4
2017-Dec-11 22:54N 35°59' W 006°16'717.1
2017-Dec-11 22:30N 35°59' W 006°08'917.9
2017-Dec-11 22:00N 35°58' W 005°57'917.8
2017-Dec-11 21:30N 35°58' W 005°46'917.9
2017-Dec-11 21:00N 35°59' W 005°35'917.5
2017-Dec-11 20:30N 36°01' W 005°24'816.7
2017-Dec-11 20:00N 36°02' W 005°14'2420.0
2017-Dec-11 18:49N 36°09' W 004°46'1019.5
2017-Dec-11 18:18N 36°12' W 004°34'89618.6
2017-Dec-09 18:02N 36°37' E 013°59'018.4
2017-Dec-09 18:00N 36°37' E 013°60'918.8
2017-Dec-09 17:30N 36°35' E 014°11'918.6
2017-Dec-09 17:00N 36°33' E 014°23'918.1
2017-Dec-09 16:30N 36°31' E 014°34'918.1
2017-Dec-09 16:00N 36°29' E 014°45'  
Track history (hours):
 
Tides and Currents Weather Stations Pressure Air Temp Water Temp Dewpoint Dewpoint Depression Visibility Wind Speed Wind Dir Waves Ship Positions

Maersk Suzhou

Last reported at 2017-Dec-14 14:45 UTC. Time now 2017-Dec-15 18:07 UTC.
Position N 36°59' W 031°18'.

Length 323 m; draft 14 m.

Type: Cargo ship. MMSI: 636017358.

Date/timePositionNaut miles runAvg speedWind from/ knotsBaromVisibWave heightAir tempDewpointWater temp
2017-Dec-14 14:45N 36°59' W 031°18'8919.9
2017-Dec-14 10:17N 37°09' W 029°26'1020.1
2017-Dec-14 09:46N 37°10' W 029°13'620.0
2017-Dec-14 09:29N 37°10' W 029°06'919.9
2017-Dec-14 09:00N 37°11' W 028°55'1019.4
2017-Dec-14 08:31N 37°12' W 028°43'1019.6
2017-Dec-14 08:00N 37°13' W 028°30'1019.8
2017-Dec-14 07:30N 37°14' W 028°18'1019.7
2017-Dec-14 07:00N 37°15' W 028°06'1019.8
2017-Dec-14 06:30N 37°16' W 027°53'1019.8
2017-Dec-14 06:01N 37°18' W 027°41'1819.9
2017-Dec-14 05:06N 37°19' W 027°18'219.2
2017-Dec-14 04:59N 37°20' W 027°16'1020.1
2017-Dec-14 04:29N 37°20' W 027°03'919.7
2017-Dec-14 04:00N 37°21' W 026°51'1019.5
2017-Dec-14 03:30N 37°22' W 026°39'1019.6
2017-Dec-14 03:01N 37°23' W 026°27'1019.4
2017-Dec-14 02:31N 37°24' W 026°15'1020.0
2017-Dec-14 02:01N 37°25' W 026°02'1019.8
2017-Dec-14 01:31N 37°26' W 025°50'1019.8
2017-Dec-14 01:00N 37°27' W 025°37'1019.9
2017-Dec-14 00:31N 37°28' W 025°25'1020.0
2017-Dec-14 00:00N 37°29' W 025°12'1020.0
2017-Dec-13 23:30N 37°29' W 024°60'1019.7
2017-Dec-13 23:00N 37°28' W 024°47'1019.6
2017-Dec-13 22:30N 37°28' W 024°35'1020.4
2017-Dec-13 22:00N 37°27' W 024°22'1020.3
2017-Dec-13 21:30N 37°26' W 024°09'1020.0
2017-Dec-13 21:00N 37°24' W 023°57'1019.8
2017-Dec-13 20:30N 37°23' W 023°45'1019.8
2017-Dec-13 20:00N 37°22' W 023°32'1219.7
2017-Dec-13 19:23N 37°21' W 023°17'1419.9
2017-Dec-13 18:41N 37°19' W 022°59'1519.9
2017-Dec-13 17:56N 37°18' W 022°41'1019.9
2017-Dec-13 17:27N 37°17' W 022°29'919.5
2017-Dec-13 17:00N 37°16' W 022°18'2019.8
2017-Dec-13 15:59N 37°14' W 021°52'75518.4
2017-Dec-11 22:54N 35°59' W 006°16'717.1
2017-Dec-11 22:30N 35°59' W 006°08'917.9
2017-Dec-11 22:00N 35°58' W 005°57'917.8
2017-Dec-11 21:30N 35°58' W 005°46'917.9
2017-Dec-11 21:00N 35°59' W 005°35'917.5
2017-Dec-11 20:30N 36°01' W 005°24'816.7
2017-Dec-11 20:00N 36°02' W 005°14'2420.0
2017-Dec-11 18:49N 36°09' W 004°46'1019.5
2017-Dec-11 18:18N 36°12' W 004°34'89618.6
2017-Dec-09 18:02N 36°37' E 013°59'018.4
2017-Dec-09 18:00N 36°37' E 013°60'918.8
2017-Dec-09 17:30N 36°35' E 014°11'918.6
2017-Dec-09 17:00N 36°33' E 014°23'918.1
2017-Dec-09 16:30N 36°31' E 014°34'918.1
2017-Dec-09 16:00N 36°29' E 014°45'  

Dump ship's entire track history